Time;durP1;ratioP1;P1;durP2;ratioP2;P2;SDS_P1;SDS_P2;PMS_P1;PMS_P2;Temp;Humidity;BMP_temperature;BMP_pressure;BME280_temperature;BME280_humidity;BME280_pressure;Samples;Min_cycle;Max_cycle;Signal;HPM_P1;HPM_P2
2022/05/01 00:02:09;;;;;;;13.80;7.30;;;22.30;53.50;;;;;;215831;1293;22590;-43
2022/05/01 00:07:13;;;;;;;13.90;7.00;;;22.30;53.30;;;;;;215173;1296;22570;-44
2022/05/01 00:12:17;;;;;;;11.50;6.30;;;22.30;53.10;;;;;;215684;1296;22675;-42
2022/05/01 00:17:21;;;;;;;11.50;6.30;;;22.30;53.30;;;;;;215278;1294;25277;-44
2022/05/01 00:22:26;;;;;;;13.00;6.90;;;22.30;53.30;;;;;;215359;1296;25412;-44
2022/05/01 00:27:30;;;;;;;12.30;6.30;;;22.30;53.30;;;;;;215551;1296;22605;-44
2022/05/01 00:36:25;;;;;;;10.60;6.40;;;22.20;53.30;;;;;;215595;1293;22599;-44
2022/05/01 00:37:58;;;;;;;11.70;6.20;;;22.20;53.30;;;;;;215937;1293;22582;-43
2022/05/01 00:43:05;;;;;;;11.70;6.40;;;22.20;53.20;;;;;;215926;1293;23544;-44
2022/05/01 00:48:09;;;;;;;12.40;6.50;;;22.20;53.30;;;;;;216089;1293;24469;-44
2022/05/01 00:53:13;;;;;;;14.00;6.30;;;22.20;53.50;;;;;;215926;1293;25419;-44
2022/05/01 00:58:16;;;;;;;13.30;6.80;;;22.10;54.00;;;;;;215874;1293;23100;-46
2022/05/01 01:03:21;;;;;;;11.10;6.40;;;22.10;53.60;;;;;;215825;1294;22587;-42
2022/05/01 01:08:25;;;;;;;12.50;6.80;;;22.10;53.60;;;;;;216191;1294;22651;-42
2022/05/01 01:13:29;;;;;;;12.00;7.00;;;22.10;53.60;;;;;;215705;1293;22597;-43
2022/05/01 01:18:33;;;;;;;12.40;6.90;;;22.10;53.80;;;;;;215754;1293;22628;-42
2022/05/01 01:23:39;;;;;;;11.50;6.20;;;22.00;54.00;;;;;;216045;1293;25379;-44
2022/05/01 01:28:43;;;;;;;13.20;6.80;;;22.00;54.30;;;;;;215929;1293;24250;-42
2022/05/01 01:33:54;;;;;;;12.70;6.90;;;22.00;54.00;;;;;;215886;1293;22580;-43
2022/05/01 01:38:59;;;;;;;12.00;6.20;;;21.90;54.00;;;;;;215663;1293;22602;-45
2022/05/01 01:44:03;;;;;;;10.40;5.40;;;21.90;54.00;;;;;;215666;1293;24290;-43
2022/05/01 01:49:09;;;;;;;10.20;6.00;;;22.20;53.10;;;;;;215969;1293;22564;-45
2022/05/01 01:54:13;;;;;;;9.60;6.00;;;22.60;52.40;;;;;;215828;1293;22583;-45
2022/05/01 01:59:17;;;;;;;10.10;5.10;;;22.80;51.70;;;;;;215746;1293;25374;-43
2022/05/01 02:04:21;;;;;;;9.30;5.40;;;23.00;51.70;;;;;;215128;1296;25308;-46
2022/05/01 02:09:25;;;;;;;9.00;5.40;;;23.10;51.10;;;;;;215579;1296;22784;-44
2022/05/01 02:14:29;;;;;;;11.20;6.20;;;23.20;50.80;;;;;;215948;1294;22622;-43
2022/05/01 02:19:32;;;;;;;11.20;5.80;;;23.30;50.80;;;;;;216039;1293;24295;-42
2022/05/01 02:24:36;;;;;;;8.50;5.40;;;23.40;50.40;;;;;;216073;1293;22579;-43
2022/05/01 02:29:42;;;;;;;9.00;5.60;;;23.50;50.10;;;;;;215925;1293;22596;-45
2022/05/01 02:34:46;;;;;;;8.60;5.40;;;23.60;50.00;;;;;;215705;1293;25709;-43
2022/05/01 02:39:49;;;;;;;8.70;5.20;;;23.60;49.70;;;;;;215569;1293;22607;-43
2022/05/01 02:44:53;;;;;;;10.40;5.60;;;23.60;49.70;;;;;;215942;1293;22663;-48
2022/05/01 02:49:57;;;;;;;8.00;5.10;;;23.60;49.70;;;;;;215633;1293;22642;-44
2022/05/01 02:55:00;;;;;;;7.80;5.20;;;23.50;49.90;;;;;;215725;1293;22503;-43
2022/05/01 03:00:05;;;;;;;9.60;4.90;;;23.40;50.10;;;;;;215648;1293;25557;-45
2022/05/01 03:05:09;;;;;;;9.00;5.20;;;23.30;50.10;;;;;;215877;1293;22601;-46
2022/05/01 03:10:12;;;;;;;9.90;5.30;;;23.20;50.30;;;;;;214754;1296;22559;-42
2022/05/01 03:15:18;;;;;;;8.20;4.70;;;23.10;50.50;;;;;;215761;1293;26797;-44
2022/05/01 03:25:46;;;;;;;8.90;5.30;;;23.00;50.70;;;;;;215835;1294;25587;-43
2022/05/01 03:30:50;;;;;;;9.60;5.40;;;22.90;51.00;;;;;;215814;1292;24303;-44
2022/05/01 03:35:55;;;;;;;8.50;5.10;;;22.90;51.40;;;;;;215538;1293;25646;-44
2022/05/01 03:40:58;;;;;;;8.60;5.10;;;22.80;50.60;;;;;;215891;1293;22848;-48
2022/05/01 03:46:04;;;;;;;10.00;6.10;;;22.80;51.50;;;;;;215844;1293;24322;-45
2022/05/01 03:51:07;;;;;;;8.90;5.20;;;22.70;51.30;;;;;;215681;1293;24351;-43
2022/05/01 03:56:11;;;;;;;8.50;5.40;;;22.70;51.40;;;;;;215684;1293;25384;-43
2022/05/01 04:01:15;;;;;;;8.70;5.20;;;22.60;51.80;;;;;;215792;1293;22608;-43
2022/05/01 04:06:19;;;;;;;9.30;5.20;;;22.60;51.70;;;;;;215951;1293;24472;-46
2022/05/01 04:11:23;;;;;;;8.10;5.50;;;22.50;51.80;;;;;;215978;1293;25280;-43
2022/05/01 04:16:27;;;;;;;9.20;5.50;;;22.50;51.60;;;;;;215524;1293;24434;-44
2022/05/01 04:21:31;;;;;;;8.20;5.10;;;22.50;52.10;;;;;;215295;1293;455121;-43
2022/05/01 04:26:34;;;;;;;13.20;5.50;;;22.50;52.20;;;;;;215475;1296;25287;-44
2022/05/01 04:31:38;;;;;;;6.80;4.50;;;22.40;52.20;;;;;;215564;1293;24663;-50
2022/05/01 04:36:42;;;;;;;8.20;5.40;;;22.40;52.20;;;;;;215589;1296;24254;-45
2022/05/01 04:41:46;;;;;;;8.70;5.10;;;22.40;52.20;;;;;;215565;1296;25236;-43
2022/05/01 04:46:50;;;;;;;7.90;5.00;;;22.30;52.30;;;;;;215484;1296;22585;-45
2022/05/01 04:51:57;;;;;;;9.00;5.40;;;22.30;52.30;;;;;;215492;1296;24331;-43
2022/05/01 04:57:05;;;;;;;8.00;5.00;;;22.30;52.30;;;;;;215506;1296;22567;-43
2022/05/01 05:02:11;;;;;;;8.20;4.60;;;22.30;52.40;;;;;;215376;1296;22563;-44
2022/05/01 05:07:15;;;;;;;8.40;4.60;;;22.20;52.40;;;;;;215682;1296;25232;-43
2022/05/01 05:12:19;;;;;;;8.50;4.80;;;22.20;52.50;;;;;;215560;1294;22602;-43
2022/05/01 05:17:22;;;;;;;6.20;4.50;;;22.20;52.60;;;;;;215248;1294;22648;-44
2022/05/01 05:22:27;;;;;;;7.80;5.00;;;22.20;52.70;;;;;;215651;1293;22634;-42
2022/05/01 05:27:31;;;;;;;8.50;4.60;;;22.20;52.60;;;;;;215715;1293;26554;-42
2022/05/01 05:32:34;;;;;;;8.10;5.10;;;22.20;52.60;;;;;;215813;1293;22817;-47
2022/05/01 05:37:39;;;;;;;8.60;4.50;;;22.10;52.50;;;;;;215582;1293;24279;-43
2022/05/01 05:42:45;;;;;;;7.50;4.40;;;22.10;52.90;;;;;;215608;1293;24224;-53
2022/05/01 05:47:50;;;;;;;8.20;4.70;;;22.10;52.50;;;;;;215249;1293;25335;-42
2022/05/01 05:52:55;;;;;;;7.40;4.50;;;22.10;52.90;;;;;;215534;1293;22586;-44
2022/05/01 05:58:00;;;;;;;7.50;4.70;;;22.10;52.60;;;;;;215695;1293;22786;-42
2022/05/01 06:03:04;;;;;;;8.80;5.10;;;22.10;52.50;;;;;;215857;1293;23994;-43
2022/05/01 06:08:18;;;;;;;7.70;4.40;;;22.10;52.60;;;;;;215570;1293;22703;-43
2022/05/01 06:13:34;;;;;;;8.60;4.70;;;22.10;52.90;;;;;;215650;1293;25553;-44
2022/05/01 06:18:38;;;;;;;6.50;4.50;;;22.10;53.10;;;;;;215808;1293;24258;-46
2022/05/01 06:23:41;;;;;;;7.00;4.30;;;22.10;52.60;;;;;;215515;1294;22563;-44
2022/05/01 06:28:47;;;;;;;7.10;4.40;;;22.10;52.60;;;;;;215247;1296;23064;-45
2022/05/01 06:33:54;;;;;;;8.90;4.50;;;22.10;52.50;;;;;;215632;1296;22579;-45
2022/05/01 06:38:59;;;;;;;6.40;4.10;;;22.10;52.50;;;;;;215615;1296;24425;-44
2022/05/01 06:44:02;;;;;;;8.60;4.50;;;22.10;52.70;;;;;;215478;1296;25417;-44
2022/05/01 06:49:06;;;;;;;10.70;5.40;;;22.10;52.60;;;;;;215300;1296;25057;-46
2022/05/01 06:54:14;;;;;;;8.30;4.30;;;22.10;52.60;;;;;;215399;1296;22609;-43
2022/05/01 06:59:19;;;;;;;10.40;4.40;;;22.10;52.60;;;;;;215372;1296;22659;-43
2022/05/01 07:04:22;;;;;;;8.10;4.50;;;22.10;52.60;;;;;;215607;1296;22567;-42
2022/05/01 07:09:26;;;;;;;8.60;4.20;;;22.10;52.60;;;;;;215340;1296;22572;-46
2022/05/01 07:14:30;;;;;;;7.40;3.80;;;22.10;52.70;;;;;;215155;1296;25281;-47
2022/05/01 07:19:34;;;;;;;9.70;4.40;;;22.10;52.70;;;;;;215648;1294;25396;-46
2022/05/01 07:24:37;;;;;;;8.60;4.30;;;22.10;52.40;;;;;;215670;1293;24353;-45
2022/05/01 07:29:41;;;;;;;6.90;4.50;;;22.20;52.40;;;;;;215726;1293;22599;-45
2022/05/01 07:34:46;;;;;;;7.70;4.50;;;22.20;52.40;;;;;;215836;1295;23068;-44
2022/05/01 07:40:05;;;;;;;9.20;4.30;;;22.20;52.50;;;;;;215445;1293;24457;-43
2022/05/01 07:45:11;;;;;;;8.10;4.10;;;22.20;52.60;;;;;;215891;1293;22747;-44
2022/05/01 07:50:18;;;;;;;9.00;4.60;;;22.10;52.60;;;;;;215959;1293;26654;-42
2022/05/01 07:55:23;;;;;;;5.40;3.50;;;22.20;52.40;;;;;;215935;1293;25454;-43
2022/05/01 08:00:34;;;;;;;8.00;4.00;;;22.20;52.90;;;;;;215296;1293;22890;-43
2022/05/01 08:05:47;;;;;;;7.80;4.40;;;22.20;52.60;;;;;;215463;1293;22893;-46
2022/05/01 08:10:50;;;;;;;6.70;4.10;;;22.20;52.50;;;;;;215123;1293;24257;-44
2022/05/01 08:15:54;;;;;;;6.60;4.20;;;22.20;52.50;;;;;;215461;1293;22659;-46
2022/05/01 08:21:10;;;;;;;8.40;4.00;;;22.20;52.60;;;;;;215168;1293;22564;-43
2022/05/01 08:26:17;;;;;;;8.20;3.80;;;22.20;52.40;;;;;;215795;1293;26519;-43
2022/05/01 08:31:21;;;;;;;6.50;4.00;;;22.30;52.90;;;;;;215279;1293;24322;-43
2022/05/01 08:36:28;;;;;;;9.20;4.10;;;22.30;52.50;;;;;;215698;1293;25390;-46
2022/05/01 08:41:32;;;;;;;6.10;3.70;;;22.30;53.10;;;;;;215071;1293;25322;-45
2022/05/01 08:46:36;;;;;;;7.40;4.20;;;22.40;52.80;;;;;;215379;1293;22842;-45
2022/05/01 08:51:41;;;;;;;7.60;3.70;;;22.40;52.50;;;;;;215558;1293;22740;-44
2022/05/01 08:56:48;;;;;;;6.70;3.90;;;22.40;52.40;;;;;;215374;1293;22592;-45
2022/05/01 09:01:54;;;;;;;6.70;3.70;;;22.40;52.40;;;;;;215449;1293;24447;-44
2022/05/01 09:07:01;;;;;;;7.40;3.40;;;22.40;52.80;;;;;;215443;1293;22651;-44
2022/05/01 09:17:28;;;;;;;13.70;4.20;;;22.50;53.40;;;;;;215874;1293;22592;-44
2022/05/01 09:22:49;;;;;;;7.00;3.50;;;22.60;54.30;;;;;;215246;1296;24360;-44
2022/05/01 09:27:59;;;;;;;8.50;3.50;;;22.60;53.00;;;;;;215982;1293;22791;-45
2022/05/01 09:33:03;;;;;;;6.90;4.10;;;22.60;52.60;;;;;;215695;1293;25567;-44
2022/05/01 09:38:16;;;;;;;7.80;4.10;;;22.60;52.30;;;;;;215869;1293;22589;-47
2022/05/01 09:43:44;;;;;;;7.60;3.30;;;22.60;53.20;;;;;;215517;1293;22775;-44
2022/05/01 09:49:02;;;;;;;10.20;4.00;;;22.70;52.90;;;;;;215830;1293;22579;-45
2022/05/01 09:54:06;;;;;;;8.10;4.00;;;22.70;52.60;;;;;;215822;1293;25332;-45
2022/05/01 09:59:10;;;;;;;10.80;3.30;;;22.70;52.80;;;;;;215529;1294;22548;-45
2022/05/01 10:04:14;;;;;;;9.60;4.50;;;22.80;52.60;;;;;;215785;1294;22646;-48
2022/05/01 10:09:24;;;;;;;15.20;4.10;;;22.80;52.10;;;;;;215827;1293;22800;-43
2022/05/01 10:14:28;;;;;;;8.90;4.00;;;22.90;52.50;;;;;;215796;1293;22571;-43
2022/05/01 10:19:36;;;;;;;8.00;3.70;;;22.90;52.00;;;;;;215494;1295;22598;-48
2022/05/01 10:24:40;;;;;;;9.10;3.90;;;22.90;52.00;;;;;;216063;1293;23986;-45
2022/05/01 10:35:28;;;;;;;12.70;4.20;;;23.10;51.80;;;;;;215729;1293;22588;-42
2022/05/01 10:40:59;;;;;;;12.00;6.00;;;23.10;51.80;;;;;;215676;1293;25274;-44
2022/05/01 10:46:21;;;;;;;14.70;6.10;;;23.10;50.70;;;;;;215946;1293;22566;-51
2022/05/01 10:51:31;;;;;;;22.20;7.70;;;23.20;50.40;;;;;;215520;1293;24432;-48
2022/05/01 10:56:36;;;;;;;17.90;7.00;;;23.20;51.10;;;;;;215798;1293;24349;-45
2022/05/01 11:02:04;;;;;;;18.20;6.30;;;23.30;52.30;;;;;;215447;1293;22806;-48
2022/05/01 11:07:12;;;;;;;19.60;6.20;;;23.40;52.00;;;;;;215485;1293;22592;-45
2022/05/01 11:12:22;;;;;;;16.20;6.60;;;23.40;52.00;;;;;;215759;1293;22767;-45
2022/05/01 11:17:36;;;;;;;15.80;5.00;;;23.40;51.60;;;;;;215766;1293;23524;-50
2022/05/01 11:22:45;;;;;;;23.60;5.60;;;23.50;51.10;;;;;;215563;1293;24260;-44
2022/05/01 11:27:53;;;;;;;19.10;6.60;;;23.50;51.80;;;;;;215979;1293;24337;-51
2022/05/01 11:39:03;;;;;;;18.30;5.10;;;23.50;49.50;;;;;;215144;1294;22606;-45
2022/05/01 11:44:26;;;;;;;12.80;5.90;;;23.50;49.00;;;;;;215680;1296;22744;-44
2022/05/01 11:49:39;;;;;;;13.80;5.50;;;23.50;48.90;;;;;;215308;1294;23975;-45
2022/05/01 11:54:52;;;;;;;18.70;5.60;;;23.40;48.80;;;;;;215112;1296;24252;-46
2022/05/01 12:05:21;;;;;;;12.10;5.80;;;23.50;48.40;;;;;;215635;1296;24441;-45
2022/05/01 12:10:30;;;;;;;9.60;4.90;;;23.50;48.50;;;;;;215651;1294;24690;-46
2022/05/01 12:15:35;;;;;;;10.80;5.30;;;23.50;48.30;;;;;;215767;1296;24130;-48
2022/05/01 12:20:40;;;;;;;12.10;4.90;;;23.50;48.30;;;;;;215688;1296;24398;-47
2022/05/01 12:25:50;;;;;;;9.80;4.80;;;23.50;48.00;;;;;;215969;1294;22639;-44
2022/05/01 12:30:58;;;;;;;9.90;4.70;;;23.40;47.90;;;;;;216176;1294;22548;-45
2022/05/01 12:36:03;;;;;;;10.60;4.90;;;23.40;47.70;;;;;;215870;1293;24449;-46
2022/05/01 12:46:57;;;;;;;7.60;4.60;;;23.40;47.50;;;;;;215598;1293;22512;-47
2022/05/01 12:52:00;;;;;;;9.50;4.80;;;23.40;47.60;;;;;;215583;1293;22708;-45
2022/05/01 12:57:33;;;;;;;9.90;4.80;;;23.40;47.20;;;;;;215723;1293;25470;-44
2022/05/01 13:02:41;;;;;;;10.30;4.50;;;23.40;47.20;;;;;;215942;1293;22766;-44
2022/05/01 13:07:46;;;;;;;8.60;4.40;;;23.40;47.00;;;;;;215758;1293;24338;-45
2022/05/01 13:12:58;;;;;;;9.80;4.50;;;23.40;46.80;;;;;;215643;1293;24252;-45
2022/05/01 13:18:02;;;;;;;9.40;4.80;;;23.50;47.20;;;;;;215844;1294;22878;-44
2022/05/01 13:23:12;;;;;;;8.70;4.90;;;23.40;46.60;;;;;;216045;1293;22557;-44
2022/05/01 13:28:16;;;;;;;7.90;4.50;;;23.40;46.60;;;;;;216061;1293;22604;-45
2022/05/01 13:33:22;;;;;;;8.00;4.30;;;23.50;46.40;;;;;;215701;1293;24529;-46
2022/05/01 13:38:26;;;;;;;7.00;4.50;;;23.50;46.30;;;;;;216026;1293;22608;-47
2022/05/01 13:48:55;;;;;;;7.60;4.50;;;23.50;46.20;;;;;;215731;1293;22630;-49
2022/05/01 13:53:58;;;;;;;8.40;4.70;;;23.50;46.20;;;;;;216009;1294;24522;-47
2022/05/01 13:59:04;;;;;;;7.10;4.40;;;23.40;45.90;;;;;;215911;1293;22766;-45
2022/05/01 14:04:08;;;;;;;8.20;4.70;;;23.50;45.90;;;;;;216137;1293;22557;-45
2022/05/01 14:09:17;;;;;;;6.60;4.40;;;23.50;45.70;;;;;;215777;1294;22589;-45
2022/05/01 14:14:22;;;;;;;7.10;4.30;;;23.50;45.70;;;;;;215651;1293;25554;-44
2022/05/01 14:19:31;;;;;;;6.70;4.70;;;23.50;45.60;;;;;;215907;1296;22594;-45
2022/05/01 14:24:46;;;;;;;6.00;4.40;;;23.40;45.50;;;;;;216154;1296;22554;-44
2022/05/01 14:30:33;;;;;;;7.10;4.50;;;23.40;45.40;;;;;;215932;1296;24463;-44
2022/05/01 14:35:55;;;;;;;5.60;4.00;;;23.40;45.40;;;;;;215691;1297;24496;-44
2022/05/01 14:41:42;;;;;;;5.60;4.00;;;23.40;45.50;;;;;;215501;1296;25368;-45
2022/05/01 14:47:00;;;;;;;6.50;4.40;;;23.40;45.00;;;;;;215809;1294;24319;-46
2022/05/01 14:52:35;;;;;;;5.60;3.90;;;23.40;44.70;;;;;;215712;1296;25585;-47
2022/05/01 14:57:49;;;;;;;5.80;3.80;;;23.40;45.10;;;;;;215280;1298;22641;-49
2022/05/01 15:08:30;;;;;;;5.90;4.20;;;23.30;44.30;;;;;;215443;1294;22561;-45
2022/05/01 15:13:34;;;;;;;7.20;4.90;;;23.30;45.00;;;;;;215680;1297;22838;-48
2022/05/01 15:19:01;;;;;;;6.50;4.40;;;23.30;44.30;;;;;;215950;1294;22727;-45
2022/05/01 15:24:05;;;;;;;7.20;4.60;;;23.30;44.40;;;;;;215886;1294;24993;-46
2022/05/01 15:29:10;;;;;;;6.00;3.80;;;23.30;44.70;;;;;;216072;1294;26879;-46
2022/05/01 15:34:20;;;;;;;5.80;4.20;;;23.30;45.20;;;;;;215637;1294;22833;-44
2022/05/01 15:39:26;;;;;;;6.90;4.20;;;23.30;44.80;;;;;;215499;1294;24284;-45
2022/05/01 15:44:30;;;;;;;5.90;4.00;;;23.30;44.50;;;;;;215962;1294;22602;-49
2022/05/01 15:54:59;;;;;;;5.10;3.70;;;23.30;44.80;;;;;;215783;1294;22754;-45
2022/05/01 16:00:19;;;;;;;6.00;4.00;;;23.20;44.30;;;;;;215944;1293;22647;-45
2022/05/01 16:05:25;;;;;;;5.20;3.70;;;23.20;44.10;;;;;;215864;1293;25549;-44
2022/05/01 16:10:48;;;;;;;5.40;4.20;;;23.30;43.80;;;;;;215936;1294;25478;-43
2022/05/01 16:16:01;;;;;;;5.10;3.90;;;23.20;43.70;;;;;;216043;1294;25276;-45
2022/05/01 16:21:45;;;;;;;5.60;3.90;;;23.20;43.90;;;;;;215543;1293;465307;-46
2022/05/01 16:26:56;;;;;;;6.50;4.10;;;23.10;43.70;;;;;;215600;1299;25387;-47
2022/05/01 16:32:06;;;;;;;7.50;4.20;;;23.20;44.00;;;;;;215300;1296;22650;-44
2022/05/01 16:37:26;;;;;;;5.20;3.70;;;23.20;44.00;;;;;;215527;1294;25503;-45
2022/05/01 16:42:33;;;;;;;6.10;3.60;;;23.20;44.20;;;;;;215515;1294;25870;-42
2022/05/01 16:47:38;;;;;;;5.60;3.70;;;23.10;44.30;;;;;;215615;1296;22589;-46
2022/05/01 16:52:47;;;;;;;6.90;4.40;;;23.10;43.30;;;;;;215587;1296;25356;-46
2022/05/01 16:58:05;;;;;;;5.30;3.90;;;23.10;43.80;;;;;;215569;1294;24412;-44
2022/05/01 17:03:32;;;;;;;7.30;4.80;;;23.10;43.40;;;;;;215650;1297;24284;-45
2022/05/01 17:09:04;;;;;;;6.50;4.70;;;23.10;43.30;;;;;;215847;1296;22655;-47
2022/05/01 17:14:18;;;;;;;5.50;3.90;;;23.10;43.20;;;;;;215662;1294;24260;-47
2022/05/01 17:19:28;;;;;;;4.90;4.00;;;23.10;43.50;;;;;;215543;1296;22628;-46
2022/05/01 17:25:05;;;;;;;7.70;4.40;;;23.00;43.30;;;;;;215392;1296;22961;-47
2022/05/01 17:30:29;;;;;;;6.00;4.10;;;23.00;43.20;;;;;;215530;1294;23950;-44
2022/05/01 17:36:25;;;;;;;6.10;3.90;;;23.00;43.60;;;;;;215281;1295;22763;-45
2022/05/01 17:41:59;;;;;;;4.90;4.00;;;23.00;43.40;;;;;;215216;1296;22743;-45
2022/05/01 17:47:10;;;;;;;5.70;4.20;;;23.00;43.50;;;;;;215252;1296;22632;-49
2022/05/01 17:52:43;;;;;;;6.90;4.40;;;23.00;43.40;;;;;;215225;1296;24854;-45
2022/05/01 17:58:20;;;;;;;5.50;3.90;;;23.00;43.30;;;;;;215493;1294;21807;-47
2022/05/01 18:03:54;;;;;;;14.60;4.40;;;22.90;43.50;;;;;;215520;1295;24442;-45
2022/05/01 18:15:40;;;;;;;7.60;4.10;;;23.00;44.80;;;;;;215002;1296;24464;-43
2022/05/01 18:20:57;;;;;;;18.10;5.20;;;23.10;46.50;;;;;;215116;1296;25535;-46
2022/05/01 18:26:30;;;;;;;12.00;4.50;;;23.10;47.40;;;;;;215715;1293;24538;-51
2022/05/01 18:32:08;;;;;;;11.90;4.30;;;23.20;46.10;;;;;;215783;1294;24455;-48
2022/05/01 18:37:33;;;;;;;9.30;4.50;;;23.20;48.00;;;;;;215693;1293;25353;-44
2022/05/01 18:42:45;;;;;;;11.70;4.30;;;23.20;49.20;;;;;;215716;1293;22617;-45
2022/05/01 18:47:54;;;;;;;8.60;4.60;;;23.20;49.60;;;;;;216012;1293;22585;-44
2022/05/01 18:53:00;;;;;;;12.60;4.80;;;23.10;49.80;;;;;;215728;1293;25492;-45
2022/05/01 18:58:25;;;;;;;8.40;4.10;;;23.20;50.40;;;;;;215922;1293;22602;-48
2022/05/01 19:03:34;;;;;;;9.40;4.20;;;23.20;50.70;;;;;;215689;1293;22604;-46
2022/05/01 19:09:02;;;;;;;8.90;4.50;;;23.20;51.10;;;;;;215551;1293;24069;-43
2022/05/01 19:14:19;;;;;;;7.00;4.00;;;23.10;51.00;;;;;;215284;1293;22586;-48
2022/05/01 19:20:08;;;;;;;8.10;4.50;;;23.00;51.00;;;;;;215312;1293;22573;-43
2022/05/01 19:31:01;;;;;;;39.30;16.50;;;23.00;50.50;;;;;;215469;1293;25598;-46
2022/05/01 19:36:44;;;;;;;62.20;27.00;;;23.00;50.20;;;;;;215133;1296;24350;-45
2022/05/01 19:42:25;;;;;;;45.00;18.00;;;23.10;51.30;;;;;;215428;1293;22673;-45
2022/05/01 19:53:24;;;;;;;46.60;16.60;;;23.20;55.30;;;;;;215571;1293;25306;-45
2022/05/01 19:58:30;;;;;;;38.50;16.60;;;23.20;54.90;;;;;;215615;1293;22809;-45
2022/05/01 20:03:40;;;;;;;34.70;15.50;;;23.20;54.70;;;;;;215506;1293;22697;-44
2022/05/01 20:08:48;;;;;;;;;;;23.20;53.80;;;;;;215672;1294;25257;-47
2022/05/01 20:13:56;;;;;;;28.60;15.00;;;23.20;53.50;;;;;;215750;1296;23259;-46
2022/05/01 20:19:21;;;;;;;34.40;14.70;;;23.20;52.90;;;;;;215423;1296;24317;-48
2022/05/01 20:25:08;;;;;;;38.70;16.10;;;23.10;53.30;;;;;;215604;1296;24347;-45
2022/05/01 20:30:22;;;;;;;35.40;14.80;;;23.10;54.00;;;;;;215720;1296;25479;-43
2022/05/01 20:35:58;;;;;;;32.60;16.00;;;23.00;53.60;;;;;;215275;1294;22976;-45
2022/05/01 20:41:04;;;;;;;40.40;16.00;;;23.00;55.00;;;;;;215488;1296;22588;-47
2022/05/01 20:46:19;;;;;;;41.20;14.90;;;23.00;57.50;;;;;;215251;1296;22801;-45
2022/05/01 20:51:31;;;;;;;48.10;16.00;;;23.00;59.80;;;;;;215520;1296;24342;-45
2022/05/01 20:56:36;;;;;;;33.90;15.20;;;23.10;61.20;;;;;;215474;1296;22641;-44
2022/05/01 21:01:47;;;;;;;40.40;15.80;;;23.10;61.20;;;;;;215303;1296;26483;-47
2022/05/01 21:06:58;;;;;;;33.80;15.20;;;23.10;61.30;;;;;;215262;1295;22684;-46
2022/05/01 21:12:04;;;;;;;31.80;15.30;;;23.10;61.10;;;;;;215010;1296;24788;-44
2022/05/01 21:17:08;;;;;;;34.50;14.80;;;23.00;61.00;;;;;;214819;1296;25274;-45
2022/05/01 21:22:19;;;;;;;35.10;13.30;;;23.00;61.00;;;;;;215025;1293;24213;-45
2022/05/01 21:27:23;;;;;;;26.10;13.10;;;23.00;60.60;;;;;;215143;1294;23112;-46
2022/05/01 21:32:33;;;;;;;25.50;13.40;;;23.00;60.60;;;;;;214994;1292;23120;-52
2022/05/01 21:37:47;;;;;;;26.30;12.70;;;23.10;60.30;;;;;;215229;1293;25740;-49
2022/05/01 21:42:59;;;;;;;31.00;12.40;;;23.00;59.50;;;;;;215451;1292;26612;-45
2022/05/01 21:48:05;;;;;;;26.60;12.30;;;23.00;59.10;;;;;;215507;1294;24823;-44
2022/05/01 21:53:21;;;;;;;27.10;12.00;;;23.00;59.50;;;;;;215076;1296;25596;-44
2022/05/01 21:58:28;;;;;;;24.60;12.30;;;23.00;59.40;;;;;;215031;1294;24247;-43
2022/05/01 22:03:35;;;;;;;25.20;11.90;;;23.00;59.20;;;;;;214918;1296;24152;-43
2022/05/01 22:08:46;;;;;;;27.10;11.90;;;23.00;59.70;;;;;;214888;1295;23987;-45
2022/05/01 22:13:52;;;;;;;22.90;11.70;;;23.00;59.40;;;;;;215004;1296;26120;-42
2022/05/01 22:18:56;;;;;;;23.80;12.10;;;22.90;58.80;;;;;;214923;1296;25488;-43
2022/05/01 22:24:00;;;;;;;23.20;11.80;;;22.90;59.10;;;;;;215112;1293;25347;-45
2022/05/01 22:29:04;;;;;;;22.80;11.70;;;22.90;59.00;;;;;;215583;1293;22569;-43
2022/05/01 22:34:07;;;;;;;21.10;11.40;;;22.90;58.50;;;;;;215225;1293;24791;-44
2022/05/01 22:39:11;;;;;;;21.10;9.90;;;22.90;58.50;;;;;;215502;1293;23988;-43
2022/05/01 22:44:14;;;;;;;22.00;10.90;;;22.90;58.70;;;;;;215738;1293;22771;-47
2022/05/01 22:49:18;;;;;;;23.80;11.10;;;22.90;58.30;;;;;;215735;1293;22736;-43
2022/05/01 22:54:23;;;;;;;24.10;11.50;;;22.90;58.20;;;;;;215188;1294;25125;-43
2022/05/01 22:59:26;;;;;;;23.50;10.40;;;22.90;58.50;;;;;;215632;1292;22606;-44
2022/05/01 23:04:30;;;;;;;20.10;10.30;;;22.80;58.00;;;;;;215207;1293;25368;-45
2022/05/01 23:09:33;;;;;;;25.50;9.80;;;22.80;58.20;;;;;;215561;1293;22569;-42
2022/05/01 23:14:37;;;;;;;18.90;10.70;;;22.80;57.70;;;;;;215697;1293;22565;-43
2022/05/01 23:19:41;;;;;;;19.60;10.20;;;22.80;57.70;;;;;;215733;1294;24263;-44
2022/05/01 23:24:45;;;;;;;19.60;10.30;;;22.80;57.40;;;;;;215427;1296;26376;-44
2022/05/01 23:35:12;;;;;;;18.90;10.20;;;22.70;57.10;;;;;;215426;1296;24279;-42
2022/05/01 23:40:15;;;;;;;19.40;9.60;;;22.70;57.00;;;;;;215124;1296;25694;-42
2022/05/01 23:45:20;;;;;;;18.70;10.10;;;22.70;56.90;;;;;;215131;1296;23977;-45
2022/05/01 23:50:25;;;;;;;19.20;10.50;;;22.70;57.10;;;;;;215424;1296;24301;-43
2022/05/01 23:55:29;;;;;;;17.80;9.70;;;22.60;56.50;;;;;;215495;1296;25239;-44
